sensor_id;sensor_type;location;lat;lon;timestamp;P1;durP1;ratioP1;P2;durP2;ratioP2
74530;SDS011;63010;55.668;37.878;2022-08-19T19:49:01;11.75;;;5.20;;
74530;SDS011;63010;55.668;37.878;2022-08-19T19:51:27;11.40;;;6.82;;
74530;SDS011;63010;55.668;37.878;2022-08-19T19:53:53;10.38;;;4.65;;
74530;SDS011;63010;55.668;37.878;2022-08-19T19:56:20;13.05;;;7.53;;
74530;SDS011;63010;55.668;37.878;2022-08-19T19:58:46;11.43;;;6.07;;
74530;SDS011;63010;55.668;37.878;2022-08-19T20:01:16;13.50;;;7.00;;
74530;SDS011;63010;55.668;37.878;2022-08-19T20:03:42;9.93;;;4.07;;
74530;SDS011;63010;55.668;37.878;2022-08-19T20:06:09;12.70;;;6.05;;
74530;SDS011;63010;55.668;37.878;2022-08-19T20:08:36;13.77;;;5.57;;
74530;SDS011;63010;55.668;37.878;2022-08-19T20:11:25;13.57;;;4.65;;
74530;SDS011;63010;55.668;37.878;2022-08-19T20:13:58;12.40;;;4.25;;
74530;SDS011;63010;55.668;37.878;2022-08-19T20:16:28;11.88;;;5.53;;
74530;SDS011;63010;55.668;37.878;2022-08-19T20:18:55;10.65;;;4.68;;
74530;SDS011;63010;55.668;37.878;2022-08-19T20:21:22;11.90;;;4.72;;
74530;SDS011;63010;55.668;37.878;2022-08-19T20:23:51;12.25;;;3.92;;
74530;SDS011;63010;55.668;37.878;2022-08-19T20:26:17;11.93;;;3.80;;
74530;SDS011;63010;55.668;37.878;2022-08-19T20:28:42;11.23;;;3.83;;
74530;SDS011;63010;55.668;37.878;2022-08-19T20:31:08;12.43;;;3.78;;
74530;SDS011;63010;55.668;37.878;2022-08-19T20:33:34;10.35;;;3.55;;
74530;SDS011;63010;55.668;37.878;2022-08-19T20:35:59;5.90;;;3.90;;
74530;SDS011;63010;55.668;37.878;2022-08-19T20:38:25;6.95;;;3.92;;
74530;SDS011;63010;55.668;37.878;2022-08-19T20:40:50;10.27;;;3.92;;
74530;SDS011;63010;55.668;37.878;2022-08-19T20:45:42;7.95;;;4.45;;
74530;SDS011;63010;55.668;37.878;2022-08-19T20:48:08;11.82;;;4.78;;
74530;SDS011;63010;55.668;37.878;2022-08-19T20:50:36;10.23;;;5.20;;
74530;SDS011;63010;55.668;37.878;2022-08-19T20:53:11;8.32;;;4.57;;
74530;SDS011;63010;55.668;37.878;2022-08-19T20:55:42;12.35;;;5.18;;
74530;SDS011;63010;55.668;37.878;2022-08-19T20:58:10;6.82;;;4.53;;
74530;SDS011;63010;55.668;37.878;2022-08-19T21:00:38;9.23;;;4.90;;
74530;SDS011;63010;55.668;37.878;2022-08-19T21:03:04;15.93;;;5.60;;
74530;SDS011;63010;55.668;37.878;2022-08-19T21:05:30;9.00;;;5.20;;
74530;SDS011;63010;55.668;37.878;2022-08-19T21:07:55;8.32;;;4.40;;
74530;SDS011;63010;55.668;37.878;2022-08-19T21:10:21;9.13;;;6.07;;
74530;SDS011;63010;55.668;37.878;2022-08-19T21:12:47;11.20;;;5.53;;
74530;SDS011;63010;55.668;37.878;2022-08-19T21:15:13;10.73;;;4.93;;
74530;SDS011;63010;55.668;37.878;2022-08-19T21:17:40;8.00;;;5.65;;
74530;SDS011;63010;55.668;37.878;2022-08-19T21:20:06;12.27;;;5.60;;
74530;SDS011;63010;55.668;37.878;2022-08-19T21:22:35;8.13;;;5.47;;
74530;SDS011;63010;55.668;37.878;2022-08-19T21:25:02;8.65;;;5.95;;
74530;SDS011;63010;55.668;37.878;2022-08-19T21:27:28;16.05;;;6.60;;
74530;SDS011;63010;55.668;37.878;2022-08-19T21:29:54;12.23;;;6.72;;
74530;SDS011;63010;55.668;37.878;2022-08-19T21:32:19;16.15;;;5.82;;
74530;SDS011;63010;55.668;37.878;2022-08-19T21:34:45;6.95;;;5.60;;
74530;SDS011;63010;55.668;37.878;2022-08-19T21:37:11;8.40;;;6.05;;
74530;SDS011;63010;55.668;37.878;2022-08-19T21:39:38;7.97;;;6.43;;
74530;SDS011;63010;55.668;37.878;2022-08-19T21:42:03;9.98;;;6.85;;
74530;SDS011;63010;55.668;37.878;2022-08-19T21:44:29;12.02;;;6.50;;
74530;SDS011;63010;55.668;37.878;2022-08-19T21:46:54;10.20;;;7.07;;
74530;SDS011;63010;55.668;37.878;2022-08-19T21:49:20;12.27;;;7.35;;
74530;SDS011;63010;55.668;37.878;2022-08-19T21:51:46;10.50;;;6.70;;
74530;SDS011;63010;55.668;37.878;2022-08-19T21:54:12;18.50;;;7.97;;
74530;SDS011;63010;55.668;37.878;2022-08-19T21:56:37;9.27;;;7.10;;
74530;SDS011;63010;55.668;37.878;2022-08-19T21:59:04;13.32;;;6.90;;
74530;SDS011;63010;55.668;37.878;2022-08-19T22:01:31;13.35;;;7.53;;
74530;SDS011;63010;55.668;37.878;2022-08-19T22:03:57;13.45;;;7.30;;
74530;SDS011;63010;55.668;37.878;2022-08-19T22:06:22;9.85;;;6.75;;
74530;SDS011;63010;55.668;37.878;2022-08-19T22:08:50;13.27;;;7.25;;
74530;SDS011;63010;55.668;37.878;2022-08-19T22:11:18;11.00;;;6.63;;
74530;SDS011;63010;55.668;37.878;2022-08-19T22:13:43;13.27;;;7.65;;
74530;SDS011;63010;55.668;37.878;2022-08-19T22:16:09;14.60;;;7.72;;
74530;SDS011;63010;55.668;37.878;2022-08-19T22:18:34;14.93;;;8.43;;
74530;SDS011;63010;55.668;37.878;2022-08-19T22:21:00;19.77;;;7.38;;
74530;SDS011;63010;55.668;37.878;2022-08-19T22:23:28;9.90;;;7.22;;
74530;SDS011;63010;55.668;37.878;2022-08-19T22:25:53;11.70;;;6.90;;
74530;SDS011;63010;55.668;37.878;2022-08-19T22:28:19;14.05;;;7.85;;
74530;SDS011;63010;55.668;37.878;2022-08-19T22:30:45;13.75;;;7.93;;
74530;SDS011;63010;55.668;37.878;2022-08-19T22:33:14;11.43;;;7.10;;
74530;SDS011;63010;55.668;37.878;2022-08-19T22:35:41;17.38;;;8.25;;
74530;SDS011;63010;55.668;37.878;2022-08-19T22:38:09;11.13;;;7.47;;
74530;SDS011;63010;55.668;37.878;2022-08-19T22:40:37;11.93;;;7.45;;
74530;SDS011;63010;55.668;37.878;2022-08-19T22:43:08;13.35;;;7.65;;
74530;SDS011;63010;55.668;37.878;2022-08-19T22:45:36;18.00;;;7.97;;
74530;SDS011;63010;55.668;37.878;2022-08-19T22:48:02;13.43;;;7.35;;
74530;SDS011;63010;55.668;37.878;2022-08-19T22:50:31;11.02;;;7.38;;
74530;SDS011;63010;55.668;37.878;2022-08-19T22:52:58;11.68;;;8.30;;
74530;SDS011;63010;55.668;37.878;2022-08-19T22:55:27;9.60;;;7.35;;
74530;SDS011;63010;55.668;37.878;2022-08-19T22:57:53;13.25;;;7.22;;
74530;SDS011;63010;55.668;37.878;2022-08-19T23:00:20;12.88;;;8.70;;
74530;SDS011;63010;55.668;37.878;2022-08-19T23:02:47;16.30;;;9.35;;
74530;SDS011;63010;55.668;37.878;2022-08-19T23:05:13;16.42;;;8.98;;
74530;SDS011;63010;55.668;37.878;2022-08-19T23:07:38;13.57;;;9.60;;
74530;SDS011;63010;55.668;37.878;2022-08-19T23:10:05;14.10;;;9.27;;
74530;SDS011;63010;55.668;37.878;2022-08-19T23:12:37;13.88;;;10.50;;
74530;SDS011;63010;55.668;37.878;2022-08-19T23:15:06;22.30;;;10.45;;
74530;SDS011;63010;55.668;37.878;2022-08-19T23:17:35;17.25;;;10.95;;
74530;SDS011;63010;55.668;37.878;2022-08-19T23:20:02;18.27;;;10.27;;
74530;SDS011;63010;55.668;37.878;2022-08-19T23:22:29;16.40;;;11.25;;
74530;SDS011;63010;55.668;37.878;2022-08-19T23:25:00;19.25;;;11.55;;
74530;SDS011;63010;55.668;37.878;2022-08-19T23:30:11;18.33;;;11.70;;
74530;SDS011;63010;55.668;37.878;2022-08-19T23:32:53;19.27;;;11.55;;
74530;SDS011;63010;55.668;37.878;2022-08-19T23:35:19;25.38;;;12.85;;
74530;SDS011;63010;55.668;37.878;2022-08-19T23:37:45;21.55;;;12.80;;
74530;SDS011;63010;55.668;37.878;2022-08-19T23:40:12;20.10;;;13.85;;
74530;SDS011;63010;55.668;37.878;2022-08-19T23:42:41;20.70;;;13.63;;
74530;SDS011;63010;55.668;37.878;2022-08-19T23:45:10;23.83;;;14.73;;
74530;SDS011;63010;55.668;37.878;2022-08-19T23:47:37;23.88;;;18.08;;
74530;SDS011;63010;55.668;37.878;2022-08-19T23:50:03;25.35;;;18.85;;
74530;SDS011;63010;55.668;37.878;2022-08-19T23:52:34;28.17;;;18.40;;
74530;SDS011;63010;55.668;37.878;2022-08-19T23:55:14;26.95;;;18.02;;
74530;SDS011;63010;55.668;37.878;2022-08-19T23:57:40;27.50;;;16.20;;
